createdAt,value
2018-08-24T00:01:07.259Z,100379.50
2018-08-24T00:06:15.931Z,100371.05
2018-08-24T00:11:25.283Z,100366.19
2018-08-24T00:16:34.101Z,100363.67
2018-08-24T00:21:43.612Z,100362.14
2018-08-24T00:26:52.518Z,100347.02
2018-08-24T00:32:01.909Z,100338.47
2018-08-24T00:37:10.911Z,100327.09
2018-08-24T00:42:20.071Z,100338.56
2018-08-24T00:47:29.174Z,100332.90
2018-08-24T00:52:38.395Z,100319.64
2018-08-24T00:57:47.532Z,100331.97
2018-08-24T01:02:57.088Z,100318.36
2018-08-24T01:08:06.760Z,100332.94
2018-08-24T01:13:16.004Z,100332.42
2018-08-24T01:18:25.355Z,100317.44
2018-08-24T01:23:34.163Z,100308.20
2018-08-24T01:28:43.661Z,100307.73
2018-08-24T01:33:52.519Z,100314.41
2018-08-24T01:39:01.623Z,100324.22
2018-08-24T01:44:11.157Z,100317.88
2018-08-24T01:49:20.029Z,100303.16
2018-08-24T01:54:29.325Z,100302.70
2018-08-24T01:59:38.500Z,100306.38
2018-08-24T02:04:48.119Z,100302.94
2018-08-24T02:09:57.376Z,100295.80
2018-08-24T02:15:06.457Z,100297.86
2018-08-24T02:20:15.909Z,100289.79
2018-08-24T02:25:25.962Z,100289.79
2018-08-24T02:30:34.923Z,100282.94
2018-08-24T02:35:44.526Z,100295.40
2018-08-24T02:40:54.065Z,100298.86
2018-08-24T02:46:03.441Z,100292.56
2018-08-24T02:51:12.164Z,100292.39
2018-08-24T02:56:21.584Z,100276.66
2018-08-24T03:01:31.014Z,100284.72
2018-08-24T03:06:39.721Z,100292.81
2018-08-24T03:11:49.328Z,100299.09
2018-08-24T03:16:58.854Z,100295.26
2018-08-24T03:22:07.644Z,100302.61
2018-08-24T03:27:17.218Z,100314.21
2018-08-24T03:32:26.821Z,100297.47
2018-08-24T03:37:36.251Z,100302.25
2018-08-24T03:42:45.520Z,100305.56
2018-08-24T03:47:54.479Z,100294.05
2018-08-24T03:53:03.842Z,100307.84
2018-08-24T03:58:12.649Z,100311.27
2018-08-24T04:03:22.725Z,100320.11
2018-08-24T04:08:31.612Z,100307.45
2018-08-24T04:13:40.840Z,100305.83
2018-08-24T04:18:50.256Z,100307.31
2018-08-24T04:23:59.581Z,100320.91
2018-08-24T04:29:08.524Z,100316.33
2018-08-24T04:34:18.125Z,100316.71
2018-08-24T04:39:26.808Z,100311.45
2018-08-24T04:44:37.371Z,100309.22
2018-08-24T04:49:46.942Z,100302.67
2018-08-24T04:54:56.751Z,100303.02
2018-08-24T05:00:06.772Z,100306.09
2018-08-24T05:05:15.933Z,100305.13
2018-08-24T05:10:25.221Z,100317.19
2018-08-24T05:15:34.112Z,100307.42
2018-08-24T05:20:43.199Z,100314.23
2018-08-24T05:25:52.081Z,100321.45
2018-08-24T05:31:01.514Z,100319.98
2018-08-24T05:36:10.840Z,100334.94
2018-08-24T05:41:20.528Z,100329.06
2018-08-24T05:46:29.795Z,100323.91
2018-08-24T05:51:39.190Z,100323.08
2018-08-24T05:56:48.095Z,100344.95
2018-08-24T06:01:57.747Z,100344.95
2018-08-24T06:07:06.941Z,100355.63
2018-08-24T06:12:16.295Z,100372.13
2018-08-24T06:17:25.550Z,100359.44
2018-08-24T06:22:34.687Z,100358.60
2018-08-24T06:27:44.109Z,100362.46
2018-08-24T06:32:53.519Z,100354.80
2018-08-24T06:38:02.361Z,100364.89
2018-08-24T06:43:11.279Z,100361.45
2018-08-24T06:48:20.366Z,100365.73
2018-08-24T06:53:32.545Z,100373.63
2018-08-24T06:58:42.382Z,100365.92
2018-08-24T07:03:57.280Z,100379.81
2018-08-24T07:09:06.676Z,100393.73
2018-08-24T07:14:15.884Z,100380.28
2018-08-24T07:19:24.792Z,100389.95
2018-08-24T07:24:33.473Z,100383.05
2018-08-24T07:29:42.731Z,100391.16
2018-08-24T07:34:51.829Z,100396.86
2018-08-24T07:40:06.919Z,100409.19
2018-08-24T07:45:16.466Z,100410.95
2018-08-24T07:50:25.087Z,100408.47
2018-08-24T07:55:34.694Z,100412.31
2018-08-24T08:00:43.504Z,100419.53
2018-08-24T08:05:52.490Z,100420.48
2018-08-24T08:11:01.467Z,100424.50
2018-08-24T08:16:10.559Z,100427.69
2018-08-24T08:21:19.307Z,100427.42
2018-08-24T08:26:28.435Z,100419.73
2018-08-24T08:31:37.132Z,100422.42
2018-08-24T08:36:46.531Z,100414.87
2018-08-24T08:41:55.933Z,100431.84
2018-08-24T08:47:05.610Z,100431.86
2018-08-24T08:52:14.730Z,100435.13
2018-08-24T08:57:24.154Z,100432.92
2018-08-24T09:02:33.635Z,100429.33
2018-08-24T09:07:42.853Z,100431.06
2018-08-24T09:12:51.719Z,100447.23
2018-08-24T09:18:00.695Z,100445.38
2018-08-24T09:23:10.228Z,100444.42
2018-08-24T09:28:19.740Z,100448.91
2018-08-24T09:33:28.325Z,100457.45
2018-08-24T09:38:37.188Z,100457.34
2018-08-24T09:43:46.475Z,100460.67
2018-08-24T09:48:55.637Z,100446.61
2018-08-24T09:54:04.866Z,100452.00
2018-08-24T09:59:14.368Z,100451.88
2018-08-24T10:04:23.399Z,100462.97
2018-08-24T10:09:32.501Z,100482.30
2018-08-24T10:14:41.703Z,100480.50
2018-08-24T10:19:50.759Z,100494.38
2018-08-24T10:25:00.011Z,100498.84
2018-08-24T10:30:10.234Z,100505.73
2018-08-24T10:35:19.096Z,100525.95
2018-08-24T10:40:27.597Z,100524.61
2018-08-24T10:45:37.138Z,100558.66
2018-08-24T10:50:46.040Z,100574.09
2018-08-24T10:55:55.635Z,100585.50
2018-08-24T11:01:05.547Z,100596.23
2018-08-24T11:06:15.692Z,100585.96
2018-08-24T11:11:24.837Z,100588.16
2018-08-24T11:16:34.176Z,100590.08
2018-08-24T11:21:43.377Z,100602.66
2018-08-24T11:26:52.320Z,100576.27
2018-08-24T11:32:01.725Z,100568.52
2018-08-24T11:37:10.607Z,100568.91
2018-08-24T11:42:19.594Z,100557.23
2018-08-24T11:47:28.603Z,100563.77
2018-08-24T11:52:37.937Z,100556.20
2018-08-24T11:57:46.760Z,100561.42
2018-08-24T12:02:55.827Z,100565.20
2018-08-24T12:08:04.859Z,100565.44
2018-08-24T12:13:14.043Z,100548.23
2018-08-24T12:18:23.190Z,100544.48
2018-08-24T12:23:32.127Z,100543.27
2018-08-24T12:28:41.261Z,100535.70
2018-08-24T12:33:50.545Z,100547.66
2018-08-24T12:38:59.971Z,100541.30
2018-08-24T12:44:15.429Z,100567.28
2018-08-24T12:49:25.393Z,100556.09
2018-08-24T12:54:35.240Z,100547.72
2018-08-24T12:59:44.369Z,100547.22
2018-08-24T13:04:53.621Z,100534.02
2018-08-24T13:10:02.756Z,100537.90
2018-08-24T13:15:12.520Z,100544.15
2018-08-24T13:20:22.317Z,100543.72
2018-08-24T13:25:31.616Z,100537.42
2018-08-24T13:30:41.117Z,100526.71
2018-08-24T13:35:50.608Z,100521.91
2018-08-24T13:40:59.434Z,100509.34
2018-08-24T13:46:08.855Z,100504.20
2018-08-24T13:51:18.206Z,100496.84
2018-08-24T13:56:27.355Z,100487.78
2018-08-24T14:01:37.190Z,100499.84
2018-08-24T14:06:46.744Z,100510.20
2018-08-24T14:11:55.781Z,100515.02
2018-08-24T14:17:05.388Z,100506.86
2018-08-24T14:22:14.717Z,100499.33
2018-08-24T14:27:24.195Z,100515.76
2018-08-24T14:32:33.222Z,100523.65
2018-08-24T14:37:41.994Z,100510.21
2018-08-24T14:42:51.448Z,100513.92
2018-08-24T14:48:00.326Z,100517.45
2018-08-24T14:53:09.509Z,100529.77
2018-08-24T14:58:19.433Z,100520.98
2018-08-24T15:03:28.893Z,100516.29
2018-08-24T15:08:37.622Z,100515.33
2018-08-24T15:13:47.156Z,100517.30
2018-08-24T15:18:56.070Z,100537.36
2018-08-24T15:24:05.823Z,100539.06
2018-08-24T15:29:15.129Z,100537.80
2018-08-24T15:34:24.444Z,100535.41
2018-08-24T15:39:33.681Z,100548.03
2018-08-24T15:44:42.292Z,100551.86
2018-08-24T15:49:51.382Z,100554.88
2018-08-24T15:55:01.063Z,100549.97
2018-08-24T16:00:10.541Z,100556.14
2018-08-24T16:05:21.094Z,100559.22
2018-08-24T16:10:29.825Z,100562.63
2018-08-24T16:15:39.396Z,100558.00
2018-08-24T16:20:49.002Z,100557.92
2018-08-24T16:25:58.265Z,100556.55
2018-08-24T16:31:07.723Z,100554.66
2018-08-24T16:36:16.952Z,100553.53
2018-08-24T16:41:25.878Z,100557.05
2018-08-24T16:46:35.486Z,100544.02
2018-08-24T16:51:45.063Z,100547.77
2018-08-24T16:56:54.630Z,100545.48
2018-08-24T17:02:04.044Z,100549.03
2018-08-24T17:07:12.922Z,100552.42
2018-08-24T17:12:22.851Z,100563.59
2018-08-24T17:17:32.071Z,100557.02
2018-08-24T17:22:41.081Z,100561.10
2018-08-24T17:27:50.331Z,100560.53
2018-08-24T17:32:59.706Z,100562.05
2018-08-24T17:38:09.004Z,100569.17
2018-08-24T17:43:18.434Z,100568.83
2018-08-24T17:48:27.788Z,100568.87
2018-08-24T17:53:36.991Z,100574.84
2018-08-24T17:58:45.784Z,100582.06
2018-08-24T18:03:54.809Z,100588.59
2018-08-24T18:09:07.130Z,100592.59
2018-08-24T18:14:16.380Z,100599.59
2018-08-24T18:19:25.636Z,100593.92
2018-08-24T18:24:34.384Z,100594.00
2018-08-24T18:29:45.063Z,100602.44
2018-08-24T18:34:54.909Z,100613.13
2018-08-24T18:40:04.815Z,100625.23
2018-08-24T18:45:13.624Z,100637.17
2018-08-24T18:50:23.564Z,100642.48
2018-08-24T18:55:32.740Z,100643.52
2018-08-24T19:00:42.396Z,100635.88
2018-08-24T19:05:51.909Z,100637.49
2018-08-24T19:11:01.146Z,100644.95
2018-08-24T19:16:10.784Z,100653.98
2018-08-24T19:21:20.302Z,100662.22
2018-08-24T19:26:30.039Z,100665.48
2018-08-24T19:31:39.093Z,100662.83
2018-08-24T19:36:48.122Z,100663.09
2018-08-24T19:41:57.411Z,100659.42
2018-08-24T19:47:06.491Z,100665.48
2018-08-24T19:52:15.824Z,100664.16
2018-08-24T19:57:24.847Z,100663.45
2018-08-24T20:02:33.916Z,100660.84
2018-08-24T20:07:43.124Z,100664.20
2018-08-24T20:12:52.540Z,100669.61
2018-08-24T20:18:01.246Z,100675.15
2018-08-24T20:23:10.227Z,100675.04
2018-08-24T20:28:19.285Z,100670.78
2018-08-24T20:33:28.722Z,100668.98
2018-08-24T20:38:37.836Z,100670.38
2018-08-24T20:43:46.956Z,100680.64
2018-08-24T20:48:56.220Z,100687.03
2018-08-24T20:54:05.562Z,100689.14
2018-08-24T20:59:14.977Z,100684.81
2018-08-24T21:04:24.700Z,100681.16
2018-08-24T21:09:33.839Z,100697.19
2018-08-24T21:14:42.968Z,100690.63
2018-08-24T21:19:52.025Z,100692.09
2018-08-24T21:25:01.358Z,100691.50
2018-08-24T21:30:10.418Z,100697.14
2018-08-24T21:35:19.943Z,100692.68
2018-08-24T21:40:28.802Z,100690.58
2018-08-24T21:45:38.012Z,100700.59
2018-08-24T21:50:47.477Z,100702.14
2018-08-24T21:55:56.639Z,100714.16
2018-08-24T22:01:05.820Z,100708.98
2018-08-24T22:06:15.061Z,100705.13
2018-08-24T22:11:24.272Z,100706.27
2018-08-24T22:16:33.964Z,100711.27
2018-08-24T22:21:43.665Z,100731.95
2018-08-24T22:26:52.985Z,100726.88
2018-08-24T22:32:02.305Z,100715.32
2018-08-24T22:37:11.621Z,100708.38
2018-08-24T22:42:20.969Z,100711.08
2018-08-24T22:47:30.036Z,100710.34
2018-08-24T22:52:39.612Z,100697.47
2018-08-24T22:57:48.475Z,100699.73
2018-08-24T23:02:57.809Z,100694.67
2018-08-24T23:08:06.839Z,100698.61
2018-08-24T23:13:15.863Z,100701.58
2018-08-24T23:18:25.173Z,100702.66
2018-08-24T23:23:34.459Z,100693.16
2018-08-24T23:28:43.548Z,100701.66
2018-08-24T23:33:52.871Z,100695.03
2018-08-24T23:39:02.079Z,100694.35
2018-08-24T23:44:11.831Z,100684.64
2018-08-24T23:49:22.480Z,100674.45
2018-08-24T23:54:31.249Z,100673.05
2018-08-24T23:59:40.422Z,100671.47
